createdAt,value
2023-04-10T00:01:58.671Z,0.88715
2023-04-10T00:07:00.094Z,0
2023-04-10T00:12:01.571Z,0
2023-04-10T00:17:03.018Z,0
2023-04-10T00:22:04.710Z,0
2023-04-10T00:27:06.331Z,0.88715
2023-04-10T00:32:07.889Z,0
2023-04-10T00:37:09.421Z,0
2023-04-10T00:42:10.821Z,0
2023-04-10T00:47:12.268Z,0.88715
2023-04-10T00:52:13.672Z,0
2023-04-10T00:57:15.274Z,0
2023-04-10T01:02:17.187Z,0.88715
2023-04-10T01:07:18.502Z,0.88715
2023-04-10T01:12:19.862Z,0.88715
2023-04-10T01:17:21.742Z,0.88715
2023-04-10T01:22:23.181Z,0.88715
2023-04-10T01:27:24.724Z,0
2023-04-10T01:32:26.846Z,0
2023-04-10T01:37:28.460Z,0
2023-04-10T01:42:30.204Z,0
2023-04-10T01:47:32.010Z,0.88715
2023-04-10T01:52:34.087Z,0.88715
2023-04-10T01:57:35.773Z,0
2023-04-10T02:02:37.844Z,0
2023-04-10T02:07:39.273Z,0.88715
2023-04-10T02:12:41.057Z,0
2023-04-10T02:17:42.852Z,0
2023-04-10T02:22:44.626Z,0
2023-04-10T02:27:46.410Z,0
2023-04-10T02:32:48.178Z,0
2023-04-10T02:37:49.887Z,0
2023-04-10T02:42:51.707Z,0
2023-04-10T02:47:53.544Z,0
2023-04-10T02:52:55.317Z,0
2023-04-10T02:57:56.964Z,0
2023-04-10T03:02:59.000Z,0
2023-04-10T03:08:00.520Z,0
2023-04-10T03:13:01.864Z,0
2023-04-10T03:18:03.440Z,0
2023-04-10T03:23:05.004Z,0
2023-04-10T03:28:06.988Z,0
2023-04-10T03:33:08.525Z,0
2023-04-10T03:38:10.109Z,0
2023-04-10T03:43:11.512Z,0.88715
2023-04-10T03:48:12.816Z,0.88715
2023-04-10T03:53:14.174Z,0
2023-04-10T03:58:15.613Z,0
2023-04-10T04:03:17.049Z,0
2023-04-10T04:08:18.512Z,0.88715
2023-04-10T04:13:19.786Z,0
2023-04-10T04:18:21.251Z,1.16185
2023-04-10T04:23:22.584Z,0.4148
2023-04-10T04:28:23.903Z,2.50815
2023-04-10T04:33:25.603Z,2.87705
2023-04-10T04:38:27.142Z,7.7089
2023-04-10T04:43:28.744Z,5.2739
2023-04-10T04:48:30.508Z,9.9223
2023-04-10T04:53:32.069Z,8.8886
2023-04-10T04:58:33.766Z,11.31815
2023-04-10T05:03:35.743Z,18.13275
2023-04-10T05:08:37.331Z,18.68275
2023-04-10T05:13:39.089Z,24.177
2023-04-10T05:18:41.204Z,36.73955
2023-04-10T05:23:42.912Z,54.5167
2023-04-10T05:28:44.569Z,64.946
2023-04-10T05:33:46.511Z,66.42745
2023-04-10T05:38:48.249Z,67.13855
2023-04-10T05:43:50.040Z,78.75305
2023-04-10T05:48:51.986Z,113.53705
2023-04-10T05:53:53.604Z,116.49985
2023-04-10T05:58:55.598Z,98.6042
2023-04-10T06:03:57.546Z,117.03325
2023-04-10T06:08:59.043Z,118.98875
2023-04-10T06:14:00.672Z,140.32145
2023-04-10T06:19:02.815Z,174.45365
2023-04-10T06:24:04.718Z,187.3125
2023-04-10T06:29:06.671Z,203.33485
2023-04-10T06:34:08.644Z,267.1914
2023-04-10T06:39:09.930Z,282.8945
2023-04-10T06:44:11.501Z,281.97545
2023-04-10T06:49:12.889Z,310.02715
2023-04-10T06:54:14.192Z,326.00015
2023-04-10T06:59:15.783Z,331.5128
2023-04-10T07:04:17.585Z,383.3683
2023-04-10T07:09:19.148Z,660.0443
2023-04-10T07:14:20.629Z,751.53755
2023-04-10T07:19:22.381Z,769.1173
2023-04-10T07:24:23.804Z,651.643
2023-04-10T07:29:25.435Z,621.8191
2023-04-10T07:34:27.259Z,627.5125
2023-04-10T07:39:28.948Z,742.33775
2023-04-10T07:44:30.630Z,734.6687
2023-04-10T07:49:32.447Z,716.32055
2023-04-10T07:54:34.039Z,609.7061
2023-04-10T07:59:35.655Z,625.38435
2023-04-10T08:04:37.631Z,610.2956
2023-04-10T08:09:39.359Z,611.9195
2023-04-10T08:14:40.941Z,619.2062
2023-04-10T08:19:43.496Z,616.75505
2023-04-10T08:24:44.889Z,671.16225
2023-04-10T08:29:46.366Z,617.21525
2023-04-10T08:34:48.174Z,644.898
2023-04-10T08:39:49.591Z,589.7293
2023-04-10T08:44:51.273Z,411.5947
2023-04-10T08:49:53.005Z,234.09815
2023-04-10T08:54:54.543Z,272.12545
2023-04-10T08:59:56.183Z,239.9987
2023-04-10T09:04:57.894Z,419.30175
2023-04-10T09:09:59.842Z,710.8508
2023-04-10T09:15:01.722Z,567.80395
2023-04-10T09:20:03.478Z,597.02075
2023-04-10T09:25:05.318Z,424.02515
2023-04-10T09:30:06.988Z,231.12795
2023-04-10T09:35:08.884Z,284.31815
2023-04-10T09:40:10.535Z,268.37665
2023-04-10T09:45:12.021Z,310.44935
2023-04-10T09:50:13.376Z,316.5526
2023-04-10T09:55:14.928Z,304.16795
2023-04-10T10:00:16.479Z,387.3654
2023-04-10T10:05:17.902Z,453.3189
2023-04-10T10:10:19.184Z,390.0912
2023-04-10T10:15:20.720Z,352.3918
2023-04-10T10:20:22.072Z,326.60495
2023-04-10T10:25:23.429Z,1119.7259
2023-04-10T10:30:30.214Z,1169.681
2023-04-10T10:35:32.308Z,1485.10815
2023-04-10T10:40:33.842Z,1468.0323
2023-04-10T10:45:35.261Z,678.06895
2023-04-10T10:50:36.707Z,841.1974
2023-04-10T10:55:37.985Z,694.96235
2023-04-10T11:00:39.354Z,1257.9947
2023-04-10T11:05:40.781Z,882.47065
2023-04-10T11:10:42.201Z,559.7257
2023-04-10T11:15:45.140Z,374.28435
2023-04-10T11:20:46.435Z,222.5691
2023-04-10T11:25:47.804Z,254.92015
2023-04-10T11:30:49.385Z,220.67405
2023-04-10T11:35:50.821Z,154.2387
2023-04-10T11:40:52.254Z,175.11585
2023-04-10T11:45:53.680Z,166.31925
2023-04-10T11:50:55.062Z,218.03385
2023-04-10T11:55:56.365Z,231.1629
2023-04-10T12:00:57.689Z,188.7939
2023-04-10T12:05:59.049Z,158.68265
2023-04-10T12:11:00.361Z,167.0172
2023-04-10T12:16:01.695Z,202.1503
2023-04-10T12:21:03.445Z,335.1411
2023-04-10T12:26:04.831Z,529.91895
2023-04-10T12:31:06.162Z,585.7656
2023-04-10T12:36:07.457Z,516.3132
2023-04-10T12:41:08.859Z,339.7769
2023-04-10T12:46:12.156Z,319.93045
2023-04-10T12:51:13.613Z,297.56055
2023-04-10T12:56:14.948Z,292.79065
2023-04-10T13:01:20.715Z,307.842
2023-04-10T13:06:22.522Z,290.1241
2023-04-10T13:11:24.124Z,326.7361
2023-04-10T13:16:26.061Z,406.31795
2023-04-10T13:21:27.809Z,552.05295
2023-04-10T13:26:29.749Z,535.7852
2023-04-10T13:31:31.105Z,409.4726
2023-04-10T13:36:32.612Z,311.7252
2023-04-10T13:41:34.122Z,269.858
2023-04-10T13:46:35.450Z,231.3407
2023-04-10T13:51:37.149Z,202.95645
2023-04-10T13:56:38.530Z,206.9859
2023-04-10T14:01:39.836Z,177.061
2023-04-10T14:06:41.253Z,183.5793
2023-04-10T14:11:42.740Z,168.70565
2023-04-10T14:16:44.246Z,140.3214
2023-04-10T14:21:46.037Z,124.79595
2023-04-10T14:26:47.684Z,120.64795
2023-04-10T14:31:57.513Z,118.0999
2023-04-10T14:37:00.110Z,124.26265
2023-04-10T14:42:01.970Z,124.73675
2023-04-10T14:47:03.868Z,171.70445
2023-04-10T14:52:05.669Z,136.70675
2023-04-10T14:57:07.327Z,119.6951
2023-04-10T15:02:09.043Z,113.1223
2023-04-10T15:07:11.018Z,94.2192
2023-04-10T15:12:12.252Z,79.6419
2023-04-10T15:17:13.798Z,83.3751
2023-04-10T15:22:15.207Z,75.4938
2023-04-10T15:27:16.529Z,217.76995
2023-04-10T15:32:17.935Z,142.8687
2023-04-10T15:37:19.295Z,78.2786
2023-04-10T15:42:20.641Z,49.24275
2023-04-10T15:47:22.363Z,33.89515
2023-04-10T15:52:24.154Z,20.62155
2023-04-10T15:57:25.595Z,17.7178
2023-04-10T16:02:27.310Z,15.1104
2023-04-10T16:07:29.174Z,7.7033
2023-04-10T16:12:30.695Z,1.6592
2023-04-10T16:17:32.237Z,0.5333
2023-04-10T16:22:34.078Z,1.16185
2023-04-10T16:27:35.602Z,0
2023-04-10T16:32:37.522Z,0.88715
2023-04-10T16:37:39.137Z,0.88715
2023-04-10T16:42:40.718Z,0
2023-04-10T16:47:42.461Z,0.88715
2023-04-10T16:52:44.596Z,0
2023-04-10T16:57:46.155Z,0
2023-04-10T17:02:47.761Z,0
2023-04-10T17:07:49.601Z,0
2023-04-10T17:12:51.180Z,0.88715
2023-04-10T17:17:53.195Z,0
2023-04-10T17:22:54.996Z,0
2023-04-10T17:27:56.903Z,0
2023-04-10T17:32:59.005Z,0
2023-04-10T17:38:01.032Z,0
2023-04-10T17:43:02.852Z,0
2023-04-10T17:48:04.689Z,0.88715
2023-04-10T17:53:06.268Z,0
2023-04-10T17:58:07.978Z,0
2023-04-10T18:03:09.967Z,0
2023-04-10T18:08:11.991Z,0.88715
2023-04-10T18:13:13.214Z,0
2023-04-10T18:18:14.601Z,0
2023-04-10T18:23:16.129Z,0
2023-04-10T18:28:19.271Z,0
2023-04-10T18:33:21.985Z,0
2023-04-10T18:38:23.448Z,0.88715
2023-04-10T18:43:24.788Z,0
2023-04-10T18:48:26.358Z,0
2023-04-10T18:53:27.915Z,0
2023-04-10T18:58:29.814Z,0
2023-04-10T19:03:31.570Z,0
2023-04-10T19:08:33.215Z,0
2023-04-10T19:13:34.852Z,0
2023-04-10T19:18:36.491Z,0
2023-04-10T19:23:38.170Z,0
2023-04-10T19:28:39.760Z,0
2023-04-10T19:33:41.567Z,0
2023-04-10T19:38:43.227Z,0.88715
2023-04-10T19:43:44.886Z,0
2023-04-10T19:48:46.577Z,0
2023-04-10T19:53:49.184Z,0.88715
2023-04-10T19:58:51.197Z,0
2023-04-10T20:03:52.783Z,0
2023-04-10T20:08:54.928Z,0
2023-04-10T20:13:56.570Z,0
2023-04-10T20:18:58.070Z,0
2023-04-10T20:23:59.836Z,0
2023-04-10T20:29:01.670Z,0
2023-04-10T20:34:03.550Z,0
2023-04-10T20:39:05.771Z,0
2023-04-10T20:44:07.557Z,0
2023-04-10T20:49:09.297Z,0.88715
2023-04-10T20:54:11.036Z,0
2023-04-10T20:59:12.850Z,0.88715
2023-04-10T21:04:14.248Z,0
2023-04-10T21:09:15.716Z,0
2023-04-10T21:14:17.168Z,0
2023-04-10T21:19:18.596Z,0
2023-04-10T21:24:20.029Z,0
2023-04-10T21:29:21.676Z,0
2023-04-10T21:34:23.183Z,0.88715
2023-04-10T21:39:24.545Z,0.88715
2023-04-10T21:44:25.810Z,0
2023-04-10T21:49:27.154Z,0
2023-04-10T21:54:28.883Z,0.88715
2023-04-10T21:59:30.128Z,0
2023-04-10T22:04:31.880Z,0
2023-04-10T22:09:34.779Z,0.88715
2023-04-10T22:14:36.028Z,0
2023-04-10T22:19:37.385Z,0
2023-04-10T22:24:38.680Z,0.88715
2023-04-10T22:29:42.033Z,0
2023-04-10T22:34:46.864Z,0
2023-04-10T22:39:48.220Z,0.88715
2023-04-10T22:44:49.479Z,0
2023-04-10T22:49:51.079Z,0
2023-04-10T22:54:52.551Z,0.88715
2023-04-10T22:59:53.931Z,0
2023-04-10T23:04:55.314Z,0.88715
2023-04-10T23:09:56.617Z,0
2023-04-10T23:14:58.074Z,0
2023-04-10T23:19:59.327Z,0
2023-04-10T23:25:00.939Z,0.88715
2023-04-10T23:30:02.368Z,0
2023-04-10T23:35:04.012Z,0
2023-04-10T23:40:05.588Z,0
2023-04-10T23:45:06.913Z,0
2023-04-10T23:50:08.405Z,0
2023-04-10T23:55:09.821Z,0
